sensor_id;sensor_type;location;lat;lon;timestamp;temperature;humidity
15916;DHT22;8057;47.830;-3.870;2024-01-30T00:02:21;10.60;99.90
15916;DHT22;8057;47.830;-3.870;2024-01-30T00:06:30;10.70;99.90
15916;DHT22;8057;47.830;-3.870;2024-01-30T00:10:41;10.70;99.90
15916;DHT22;8057;47.830;-3.870;2024-01-30T00:14:50;10.70;99.90
15916;DHT22;8057;47.830;-3.870;2024-01-30T00:19:01;10.70;99.90
15916;DHT22;8057;47.830;-3.870;2024-01-30T00:23:11;10.60;99.90
15916;DHT22;8057;47.830;-3.870;2024-01-30T00:27:21;10.50;99.90
15916;DHT22;8057;47.830;-3.870;2024-01-30T00:31:30;10.40;99.90
15916;DHT22;8057;47.830;-3.870;2024-01-30T00:35:39;10.30;99.90
15916;DHT22;8057;47.830;-3.870;2024-01-30T00:39:48;10.20;99.90
15916;DHT22;8057;47.830;-3.870;2024-01-30T00:43:58;10.10;99.90
15916;DHT22;8057;47.830;-3.870;2024-01-30T00:48:07;10.00;99.90
15916;DHT22;8057;47.830;-3.870;2024-01-30T00:52:16;9.80;99.90
15916;DHT22;8057;47.830;-3.870;2024-01-30T00:56:26;9.50;99.90
15916;DHT22;8057;47.830;-3.870;2024-01-30T01:00:36;9.20;99.90
15916;DHT22;8057;47.830;-3.870;2024-01-30T01:04:45;9.10;99.90
15916;DHT22;8057;47.830;-3.870;2024-01-30T01:08:54;9.10;99.90
15916;DHT22;8057;47.830;-3.870;2024-01-30T01:13:03;9.10;99.90
15916;DHT22;8057;47.830;-3.870;2024-01-30T01:17:14;9.10;99.90
15916;DHT22;8057;47.830;-3.870;2024-01-30T01:21:23;9.00;99.90
15916;DHT22;8057;47.830;-3.870;2024-01-30T01:25:32;8.70;99.90
15916;DHT22;8057;47.830;-3.870;2024-01-30T01:29:41;8.60;99.90
15916;DHT22;8057;47.830;-3.870;2024-01-30T01:33:52;8.60;99.90
15916;DHT22;8057;47.830;-3.870;2024-01-30T01:38:02;8.60;99.90
15916;DHT22;8057;47.830;-3.870;2024-01-30T01:42:11;8.70;99.90
15916;DHT22;8057;47.830;-3.870;2024-01-30T01:46:20;8.60;99.90
15916;DHT22;8057;47.830;-3.870;2024-01-30T01:50:30;8.60;99.90
15916;DHT22;8057;47.830;-3.870;2024-01-30T01:54:40;8.60;99.90
15916;DHT22;8057;47.830;-3.870;2024-01-30T01:58:50;8.60;99.90
15916;DHT22;8057;47.830;-3.870;2024-01-30T02:03:03;8.60;99.90
15916;DHT22;8057;47.830;-3.870;2024-01-30T02:07:14;8.40;99.90
15916;DHT22;8057;47.830;-3.870;2024-01-30T02:11:24;8.30;99.90
15916;DHT22;8057;47.830;-3.870;2024-01-30T02:15:33;8.00;99.90
15916;DHT22;8057;47.830;-3.870;2024-01-30T02:19:42;7.80;99.90
15916;DHT22;8057;47.830;-3.870;2024-01-30T02:23:53;7.60;99.90
15916;DHT22;8057;47.830;-3.870;2024-01-30T02:28:04;7.70;99.90
15916;DHT22;8057;47.830;-3.870;2024-01-30T02:32:13;7.70;99.90
15916;DHT22;8057;47.830;-3.870;2024-01-30T02:36:22;7.80;99.90
15916;DHT22;8057;47.830;-3.870;2024-01-30T02:40:32;7.80;99.90
15916;DHT22;8057;47.830;-3.870;2024-01-30T02:44:41;7.60;99.90
15916;DHT22;8057;47.830;-3.870;2024-01-30T02:48:50;7.50;99.90
15916;DHT22;8057;47.830;-3.870;2024-01-30T02:52:59;7.50;99.90
15916;DHT22;8057;47.830;-3.870;2024-01-30T02:57:10;7.60;99.90
15916;DHT22;8057;47.830;-3.870;2024-01-30T03:01:19;7.50;99.90
15916;DHT22;8057;47.830;-3.870;2024-01-30T03:05:28;7.20;99.90
15916;DHT22;8057;47.830;-3.870;2024-01-30T03:09:38;7.00;99.90
15916;DHT22;8057;47.830;-3.870;2024-01-30T03:13:48;6.90;99.90
15916;DHT22;8057;47.830;-3.870;2024-01-30T03:17:57;6.80;99.90
15916;DHT22;8057;47.830;-3.870;2024-01-30T03:22:06;6.80;99.90
15916;DHT22;8057;47.830;-3.870;2024-01-30T03:26:15;6.90;99.90
15916;DHT22;8057;47.830;-3.870;2024-01-30T03:30:26;6.80;99.90
15916;DHT22;8057;47.830;-3.870;2024-01-30T03:34:35;6.80;99.90
15916;DHT22;8057;47.830;-3.870;2024-01-30T03:38:44;6.70;99.90
15916;DHT22;8057;47.830;-3.870;2024-01-30T03:42:53;6.40;99.90
15916;DHT22;8057;47.830;-3.870;2024-01-30T03:47:04;6.40;99.90
15916;DHT22;8057;47.830;-3.870;2024-01-30T03:51:13;6.40;99.90
15916;DHT22;8057;47.830;-3.870;2024-01-30T03:55:23;6.20;99.90
15916;DHT22;8057;47.830;-3.870;2024-01-30T03:59:32;6.10;99.90
15916;DHT22;8057;47.830;-3.870;2024-01-30T04:03:43;6.10;99.90
15916;DHT22;8057;47.830;-3.870;2024-01-30T04:07:52;6.10;99.90
15916;DHT22;8057;47.830;-3.870;2024-01-30T04:12:02;6.10;99.90
15916;DHT22;8057;47.830;-3.870;2024-01-30T04:16:19;6.30;99.90
15916;DHT22;8057;47.830;-3.870;2024-01-30T04:20:31;6.30;99.90
15916;DHT22;8057;47.830;-3.870;2024-01-30T04:24:40;6.10;99.90
15916;DHT22;8057;47.830;-3.870;2024-01-30T04:28:50;5.80;99.90
15916;DHT22;8057;47.830;-3.870;2024-01-30T04:32:59;5.80;99.90
15916;DHT22;8057;47.830;-3.870;2024-01-30T04:37:10;5.90;99.90
15916;DHT22;8057;47.830;-3.870;2024-01-30T04:41:19;5.90;99.90
15916;DHT22;8057;47.830;-3.870;2024-01-30T04:45:28;5.90;99.90
15916;DHT22;8057;47.830;-3.870;2024-01-30T04:49:38;5.90;99.90
15916;DHT22;8057;47.830;-3.870;2024-01-30T04:53:50;5.90;99.90
15916;DHT22;8057;47.830;-3.870;2024-01-30T04:57:59;5.90;99.90
15916;DHT22;8057;47.830;-3.870;2024-01-30T05:02:08;5.90;99.90
15916;DHT22;8057;47.830;-3.870;2024-01-30T05:06:24;5.70;99.90
15916;DHT22;8057;47.830;-3.870;2024-01-30T05:10:35;5.70;99.90
15916;DHT22;8057;47.830;-3.870;2024-01-30T05:14:45;5.80;99.90
15916;DHT22;8057;47.830;-3.870;2024-01-30T05:18:54;5.70;99.90
15916;DHT22;8057;47.830;-3.870;2024-01-30T05:23:07;5.70;99.90
15916;DHT22;8057;47.830;-3.870;2024-01-30T05:27:18;5.70;99.90
15916;DHT22;8057;47.830;-3.870;2024-01-30T05:31:27;5.80;99.90
15916;DHT22;8057;47.830;-3.870;2024-01-30T05:35:36;5.80;99.90
15916;DHT22;8057;47.830;-3.870;2024-01-30T05:39:45;5.80;99.90
15916;DHT22;8057;47.830;-3.870;2024-01-30T05:43:56;5.60;99.90
15916;DHT22;8057;47.830;-3.870;2024-01-30T05:48:05;5.50;99.90
15916;DHT22;8057;47.830;-3.870;2024-01-30T05:52:15;5.40;99.90
15916;DHT22;8057;47.830;-3.870;2024-01-30T05:56:25;5.40;99.90
15916;DHT22;8057;47.830;-3.870;2024-01-30T06:00:35;5.30;99.90
15916;DHT22;8057;47.830;-3.870;2024-01-30T06:04:44;5.30;99.90
15916;DHT22;8057;47.830;-3.870;2024-01-30T06:08:54;5.10;99.90
15916;DHT22;8057;47.830;-3.870;2024-01-30T06:13:04;5.10;99.90
15916;DHT22;8057;47.830;-3.870;2024-01-30T06:17:14;5.10;99.90
15916;DHT22;8057;47.830;-3.870;2024-01-30T06:21:24;5.00;99.90
15916;DHT22;8057;47.830;-3.870;2024-01-30T06:25:33;4.90;99.90
15916;DHT22;8057;47.830;-3.870;2024-01-30T06:29:43;4.90;99.90
15916;DHT22;8057;47.830;-3.870;2024-01-30T06:33:53;5.00;99.90
15916;DHT22;8057;47.830;-3.870;2024-01-30T06:38:03;5.00;99.90
15916;DHT22;8057;47.830;-3.870;2024-01-30T06:42:12;5.00;99.90
15916;DHT22;8057;47.830;-3.870;2024-01-30T06:46:21;5.00;99.90
15916;DHT22;8057;47.830;-3.870;2024-01-30T06:50:33;4.90;99.90
15916;DHT22;8057;47.830;-3.870;2024-01-30T06:54:43;4.70;99.90
15916;DHT22;8057;47.830;-3.870;2024-01-30T06:58:52;4.60;99.90
15916;DHT22;8057;47.830;-3.870;2024-01-30T07:03:02;4.60;99.90
15916;DHT22;8057;47.830;-3.870;2024-01-30T07:07:13;4.40;99.90
15916;DHT22;8057;47.830;-3.870;2024-01-30T07:11:23;4.20;99.90
15916;DHT22;8057;47.830;-3.870;2024-01-30T07:15:32;4.10;99.90
15916;DHT22;8057;47.830;-3.870;2024-01-30T07:19:42;4.20;99.90
15916;DHT22;8057;47.830;-3.870;2024-01-30T07:23:53;4.20;99.90
15916;DHT22;8057;47.830;-3.870;2024-01-30T07:28:03;4.20;99.90
15916;DHT22;8057;47.830;-3.870;2024-01-30T07:32:13;4.10;99.90
15916;DHT22;8057;47.830;-3.870;2024-01-30T07:36:23;4.10;99.90
15916;DHT22;8057;47.830;-3.870;2024-01-30T07:40:34;4.10;99.90
15916;DHT22;8057;47.830;-3.870;2024-01-30T07:44:43;4.20;99.90
15916;DHT22;8057;47.830;-3.870;2024-01-30T07:48:53;4.20;99.90
15916;DHT22;8057;47.830;-3.870;2024-01-30T07:53:03;4.00;99.90
15916;DHT22;8057;47.830;-3.870;2024-01-30T07:57:14;3.90;99.90
15916;DHT22;8057;47.830;-3.870;2024-01-30T08:01:24;4.10;99.90
15916;DHT22;8057;47.830;-3.870;2024-01-30T08:05:34;4.30;99.90
15916;DHT22;8057;47.830;-3.870;2024-01-30T08:09:43;4.20;99.90
15916;DHT22;8057;47.830;-3.870;2024-01-30T08:13:55;4.10;99.90
15916;DHT22;8057;47.830;-3.870;2024-01-30T08:18:07;4.10;99.90
15916;DHT22;8057;47.830;-3.870;2024-01-30T08:22:17;4.20;99.90
15916;DHT22;8057;47.830;-3.870;2024-01-30T08:26:26;4.30;99.90
15916;DHT22;8057;47.830;-3.870;2024-01-30T08:30:38;4.50;99.90
15916;DHT22;8057;47.830;-3.870;2024-01-30T08:34:47;4.40;99.90
15916;DHT22;8057;47.830;-3.870;2024-01-30T08:39:00;4.40;99.90
15916;DHT22;8057;47.830;-3.870;2024-01-30T08:43:12;4.60;99.90
15916;DHT22;8057;47.830;-3.870;2024-01-30T08:47:24;4.70;99.90
15916;DHT22;8057;47.830;-3.870;2024-01-30T08:51:34;5.00;99.90
15916;DHT22;8057;47.830;-3.870;2024-01-30T08:55:44;5.10;99.90
15916;DHT22;8057;47.830;-3.870;2024-01-30T08:59:53;5.40;99.90
15916;DHT22;8057;47.830;-3.870;2024-01-30T09:04:04;5.80;99.90
15916;DHT22;8057;47.830;-3.870;2024-01-30T09:08:13;6.10;99.90
15916;DHT22;8057;47.830;-3.870;2024-01-30T09:12:23;6.50;99.90
15916;DHT22;8057;47.830;-3.870;2024-01-30T09:16:32;6.80;99.90
15916;DHT22;8057;47.830;-3.870;2024-01-30T09:20:43;6.90;99.90
15916;DHT22;8057;47.830;-3.870;2024-01-30T09:24:53;7.00;99.90
15916;DHT22;8057;47.830;-3.870;2024-01-30T09:29:02;7.10;99.90
15916;DHT22;8057;47.830;-3.870;2024-01-30T09:33:11;7.30;99.90
15916;DHT22;8057;47.830;-3.870;2024-01-30T09:37:22;7.50;99.90
15916;DHT22;8057;47.830;-3.870;2024-01-30T09:41:46;7.70;99.90
15916;DHT22;8057;47.830;-3.870;2024-01-30T09:45:57;8.00;99.90
15916;DHT22;8057;47.830;-3.870;2024-01-30T09:50:09;8.20;99.90
15916;DHT22;8057;47.830;-3.870;2024-01-30T09:54:21;8.50;99.90
15916;DHT22;8057;47.830;-3.870;2024-01-30T09:58:32;8.70;99.90
15916;DHT22;8057;47.830;-3.870;2024-01-30T10:02:42;8.90;99.90
15916;DHT22;8057;47.830;-3.870;2024-01-30T10:07:03;9.20;99.90
15916;DHT22;8057;47.830;-3.870;2024-01-30T10:11:16;9.50;99.90
15916;DHT22;8057;47.830;-3.870;2024-01-30T10:15:26;9.60;99.90
15916;DHT22;8057;47.830;-3.870;2024-01-30T10:19:37;9.90;99.90
15916;DHT22;8057;47.830;-3.870;2024-01-30T10:23:46;9.90;99.90
15916;DHT22;8057;47.830;-3.870;2024-01-30T10:27:58;10.10;99.90
15916;DHT22;8057;47.830;-3.870;2024-01-30T10:32:08;10.20;99.90
15916;DHT22;8057;47.830;-3.870;2024-01-30T10:36:17;10.40;99.90
15916;DHT22;8057;47.830;-3.870;2024-01-30T10:40:31;10.50;99.90
15916;DHT22;8057;47.830;-3.870;2024-01-30T10:44:52;10.70;99.90
15916;DHT22;8057;47.830;-3.870;2024-01-30T10:49:06;10.80;99.90
15916;DHT22;8057;47.830;-3.870;2024-01-30T10:53:17;10.90;99.90
15916;DHT22;8057;47.830;-3.870;2024-01-30T10:57:27;11.00;99.90
15916;DHT22;8057;47.830;-3.870;2024-01-30T11:01:39;11.00;99.90
15916;DHT22;8057;47.830;-3.870;2024-01-30T11:05:50;11.00;99.90
15916;DHT22;8057;47.830;-3.870;2024-01-30T11:10:01;11.00;99.90
15916;DHT22;8057;47.830;-3.870;2024-01-30T11:14:12;11.10;99.90
15916;DHT22;8057;47.830;-3.870;2024-01-30T11:18:27;11.20;99.90
15916;DHT22;8057;47.830;-3.870;2024-01-30T11:22:38;11.30;99.90
15916;DHT22;8057;47.830;-3.870;2024-01-30T11:26:55;11.40;99.90
15916;DHT22;8057;47.830;-3.870;2024-01-30T11:31:05;11.60;99.90
15916;DHT22;8057;47.830;-3.870;2024-01-30T11:35:18;11.70;99.90
15916;DHT22;8057;47.830;-3.870;2024-01-30T11:39:28;11.80;99.90
15916;DHT22;8057;47.830;-3.870;2024-01-30T11:43:38;11.90;99.90
15916;DHT22;8057;47.830;-3.870;2024-01-30T11:47:49;11.90;99.90
15916;DHT22;8057;47.830;-3.870;2024-01-30T11:52:00;12.00;99.90
15916;DHT22;8057;47.830;-3.870;2024-01-30T11:56:10;12.10;99.90
15916;DHT22;8057;47.830;-3.870;2024-01-30T12:00:21;12.20;99.90
15916;DHT22;8057;47.830;-3.870;2024-01-30T12:04:30;12.00;99.90
15916;DHT22;8057;47.830;-3.870;2024-01-30T12:08:41;12.10;99.90
15916;DHT22;8057;47.830;-3.870;2024-01-30T12:12:52;12.30;99.90
15916;DHT22;8057;47.830;-3.870;2024-01-30T12:17:03;12.30;99.90
15916;DHT22;8057;47.830;-3.870;2024-01-30T12:21:15;12.50;99.90
15916;DHT22;8057;47.830;-3.870;2024-01-30T12:25:26;12.80;99.90
15916;DHT22;8057;47.830;-3.870;2024-01-30T12:29:37;12.90;99.90
15916;DHT22;8057;47.830;-3.870;2024-01-30T12:33:50;12.80;99.90
15916;DHT22;8057;47.830;-3.870;2024-01-30T12:38:02;12.70;99.90
15916;DHT22;8057;47.830;-3.870;2024-01-30T12:42:13;12.60;99.90
15916;DHT22;8057;47.830;-3.870;2024-01-30T12:46:27;12.60;99.90
15916;DHT22;8057;47.830;-3.870;2024-01-30T12:50:37;12.70;99.90
15916;DHT22;8057;47.830;-3.870;2024-01-30T12:54:46;12.90;99.90
15916;DHT22;8057;47.830;-3.870;2024-01-30T12:58:57;13.10;99.90
15916;DHT22;8057;47.830;-3.870;2024-01-30T13:03:06;13.10;99.90
15916;DHT22;8057;47.830;-3.870;2024-01-30T13:07:16;12.90;99.90
15916;DHT22;8057;47.830;-3.870;2024-01-30T13:11:26;12.60;99.90
15916;DHT22;8057;47.830;-3.870;2024-01-30T13:15:37;12.70;99.90
15916;DHT22;8057;47.830;-3.870;2024-01-30T13:19:46;12.70;99.90
15916;DHT22;8057;47.830;-3.870;2024-01-30T13:23:57;12.70;99.90
15916;DHT22;8057;47.830;-3.870;2024-01-30T13:28:06;12.70;99.90
15916;DHT22;8057;47.830;-3.870;2024-01-30T13:32:17;12.50;99.90
15916;DHT22;8057;47.830;-3.870;2024-01-30T13:36:27;12.50;99.90
15916;DHT22;8057;47.830;-3.870;2024-01-30T13:40:36;12.80;99.90
15916;DHT22;8057;47.830;-3.870;2024-01-30T13:44:47;12.90;99.90
15916;DHT22;8057;47.830;-3.870;2024-01-30T13:48:58;12.90;99.90
15916;DHT22;8057;47.830;-3.870;2024-01-30T13:53:09;13.00;99.90
15916;DHT22;8057;47.830;-3.870;2024-01-30T13:57:20;13.00;99.90
15916;DHT22;8057;47.830;-3.870;2024-01-30T14:01:30;13.10;99.90
15916;DHT22;8057;47.830;-3.870;2024-01-30T14:05:41;13.20;99.90
15916;DHT22;8057;47.830;-3.870;2024-01-30T14:09:52;13.20;99.90
15916;DHT22;8057;47.830;-3.870;2024-01-30T14:14:02;13.10;99.90
15916;DHT22;8057;47.830;-3.870;2024-01-30T14:18:11;12.50;99.90
15916;DHT22;8057;47.830;-3.870;2024-01-30T14:22:22;12.20;99.90
15916;DHT22;8057;47.830;-3.870;2024-01-30T14:26:31;12.20;99.90
15916;DHT22;8057;47.830;-3.870;2024-01-30T14:30:41;11.90;99.90
15916;DHT22;8057;47.830;-3.870;2024-01-30T14:34:50;11.80;99.90
15916;DHT22;8057;47.830;-3.870;2024-01-30T14:39:01;11.70;99.90
15916;DHT22;8057;47.830;-3.870;2024-01-30T14:43:11;11.70;99.90
15916;DHT22;8057;47.830;-3.870;2024-01-30T14:47:21;11.70;99.90
15916;DHT22;8057;47.830;-3.870;2024-01-30T14:51:31;11.70;99.90
15916;DHT22;8057;47.830;-3.870;2024-01-30T14:55:42;11.70;99.90
15916;DHT22;8057;47.830;-3.870;2024-01-30T14:59:53;11.80;99.90
15916;DHT22;8057;47.830;-3.870;2024-01-30T15:04:02;11.90;99.90
15916;DHT22;8057;47.830;-3.870;2024-01-30T15:08:12;12.00;99.90
15916;DHT22;8057;47.830;-3.870;2024-01-30T15:12:23;11.80;99.90
15916;DHT22;8057;47.830;-3.870;2024-01-30T15:16:32;11.70;99.90
15916;DHT22;8057;47.830;-3.870;2024-01-30T15:20:42;11.40;99.90
15916;DHT22;8057;47.830;-3.870;2024-01-30T15:24:51;11.20;99.90
15916;DHT22;8057;47.830;-3.870;2024-01-30T15:29:02;11.20;99.90
15916;DHT22;8057;47.830;-3.870;2024-01-30T15:33:12;11.30;99.90
15916;DHT22;8057;47.830;-3.870;2024-01-30T15:37:21;11.40;99.90
15916;DHT22;8057;47.830;-3.870;2024-01-30T15:41:31;11.50;99.90
15916;DHT22;8057;47.830;-3.870;2024-01-30T15:45:42;11.50;99.90
15916;DHT22;8057;47.830;-3.870;2024-01-30T15:49:51;11.30;99.90
15916;DHT22;8057;47.830;-3.870;2024-01-30T15:54:01;11.10;99.90
15916;DHT22;8057;47.830;-3.870;2024-01-30T15:58:11;11.00;99.90
15916;DHT22;8057;47.830;-3.870;2024-01-30T16:02:22;10.90;99.90
15916;DHT22;8057;47.830;-3.870;2024-01-30T16:06:32;10.80;99.90
15916;DHT22;8057;47.830;-3.870;2024-01-30T16:10:41;10.70;99.90
15916;DHT22;8057;47.830;-3.870;2024-01-30T16:14:52;10.70;99.90
15916;DHT22;8057;47.830;-3.870;2024-01-30T16:19:03;10.60;99.90
15916;DHT22;8057;47.830;-3.870;2024-01-30T16:23:12;10.50;99.90
15916;DHT22;8057;47.830;-3.870;2024-01-30T16:27:21;10.50;99.90
15916;DHT22;8057;47.830;-3.870;2024-01-30T16:31:31;10.50;99.90
15916;DHT22;8057;47.830;-3.870;2024-01-30T16:35:42;10.50;99.90
15916;DHT22;8057;47.830;-3.870;2024-01-30T16:39:54;10.50;99.90
15916;DHT22;8057;47.830;-3.870;2024-01-30T16:44:03;10.40;99.90
15916;DHT22;8057;47.830;-3.870;2024-01-30T16:48:13;10.40;99.90
15916;DHT22;8057;47.830;-3.870;2024-01-30T16:52:27;10.40;99.90
15916;DHT22;8057;47.830;-3.870;2024-01-30T16:56:36;10.30;99.90
15916;DHT22;8057;47.830;-3.870;2024-01-30T17:00:46;10.30;99.90
15916;DHT22;8057;47.830;-3.870;2024-01-30T17:04:55;10.30;99.90
15916;DHT22;8057;47.830;-3.870;2024-01-30T17:09:29;10.20;99.90
15916;DHT22;8057;47.830;-3.870;2024-01-30T17:13:40;10.10;99.90
15916;DHT22;8057;47.830;-3.870;2024-01-30T17:17:49;10.00;99.90
15916;DHT22;8057;47.830;-3.870;2024-01-30T17:22:01;9.90;99.90
15916;DHT22;8057;47.830;-3.870;2024-01-30T17:26:12;9.80;99.90
15916;DHT22;8057;47.830;-3.870;2024-01-30T17:30:22;9.70;99.90
15916;DHT22;8057;47.830;-3.870;2024-01-30T17:34:31;9.60;99.90
15916;DHT22;8057;47.830;-3.870;2024-01-30T17:38:41;9.50;99.90
15916;DHT22;8057;47.830;-3.870;2024-01-30T17:42:53;9.40;99.90
15916;DHT22;8057;47.830;-3.870;2024-01-30T17:47:03;9.20;99.90
15916;DHT22;8057;47.830;-3.870;2024-01-30T17:51:12;9.10;99.90
15916;DHT22;8057;47.830;-3.870;2024-01-30T17:55:22;9.10;99.90
15916;DHT22;8057;47.830;-3.870;2024-01-30T17:59:33;9.00;99.90
15916;DHT22;8057;47.830;-3.870;2024-01-30T18:03:42;9.00;99.90
15916;DHT22;8057;47.830;-3.870;2024-01-30T18:07:52;9.00;99.90
15916;DHT22;8057;47.830;-3.870;2024-01-30T18:12:02;8.90;99.90
15916;DHT22;8057;47.830;-3.870;2024-01-30T18:16:16;8.90;99.90
15916;DHT22;8057;47.830;-3.870;2024-01-30T18:20:28;8.80;99.90
15916;DHT22;8057;47.830;-3.870;2024-01-30T18:24:38;8.80;99.90
15916;DHT22;8057;47.830;-3.870;2024-01-30T19:31:38;7.30;99.90
15916;DHT22;8057;47.830;-3.870;2024-01-30T20:47:32;6.20;99.90
15916;DHT22;8057;47.830;-3.870;2024-01-30T20:51:47;6.10;99.90
